sensor_id;sensor_type;location;lat;lon;timestamp;temperature;humidity
17178;DHT22;8704;52.006;4.374;2023-07-24T00:01:20;18.60;99.90
17178;DHT22;8704;52.006;4.374;2023-07-24T00:03:49;18.60;99.90
17178;DHT22;8704;52.006;4.374;2023-07-24T00:06:17;18.50;99.90
17178;DHT22;8704;52.006;4.374;2023-07-24T00:08:45;18.60;99.90
17178;DHT22;8704;52.006;4.374;2023-07-24T00:11:14;18.50;99.90
17178;DHT22;8704;52.006;4.374;2023-07-24T00:13:43;18.50;99.90
17178;DHT22;8704;52.006;4.374;2023-07-24T00:16:12;18.50;99.90
17178;DHT22;8704;52.006;4.374;2023-07-24T00:18:40;18.50;99.90
17178;DHT22;8704;52.006;4.374;2023-07-24T00:21:08;18.40;99.90
17178;DHT22;8704;52.006;4.374;2023-07-24T00:23:37;18.50;99.90
17178;DHT22;8704;52.006;4.374;2023-07-24T00:26:05;18.50;99.90
17178;DHT22;8704;52.006;4.374;2023-07-24T00:28:35;18.50;99.90
17178;DHT22;8704;52.006;4.374;2023-07-24T00:31:03;18.50;99.90
17178;DHT22;8704;52.006;4.374;2023-07-24T00:33:31;18.50;99.90
17178;DHT22;8704;52.006;4.374;2023-07-24T00:35:59;18.50;99.90
17178;DHT22;8704;52.006;4.374;2023-07-24T00:38:27;18.40;99.90
17178;DHT22;8704;52.006;4.374;2023-07-24T00:40:55;18.40;99.90
17178;DHT22;8704;52.006;4.374;2023-07-24T00:43:23;18.40;99.90
17178;DHT22;8704;52.006;4.374;2023-07-24T00:45:53;18.40;99.90
17178;DHT22;8704;52.006;4.374;2023-07-24T00:48:22;18.40;99.90
17178;DHT22;8704;52.006;4.374;2023-07-24T00:50:50;18.30;99.90
17178;DHT22;8704;52.006;4.374;2023-07-24T00:53:19;18.30;99.90
17178;DHT22;8704;52.006;4.374;2023-07-24T00:55:48;18.30;99.90
17178;DHT22;8704;52.006;4.374;2023-07-24T00:58:16;18.30;99.90
17178;DHT22;8704;52.006;4.374;2023-07-24T01:00:45;18.30;99.90
17178;DHT22;8704;52.006;4.374;2023-07-24T01:03:15;18.20;99.90
17178;DHT22;8704;52.006;4.374;2023-07-24T01:05:43;18.20;99.90
17178;DHT22;8704;52.006;4.374;2023-07-24T01:08:11;18.20;99.90
17178;DHT22;8704;52.006;4.374;2023-07-24T01:10:39;18.20;99.90
17178;DHT22;8704;52.006;4.374;2023-07-24T01:13:13;18.10;99.90
17178;DHT22;8704;52.006;4.374;2023-07-24T01:15:47;18.10;99.90
17178;DHT22;8704;52.006;4.374;2023-07-24T01:18:18;18.10;99.90
17178;DHT22;8704;52.006;4.374;2023-07-24T01:20:49;18.10;99.90
17178;DHT22;8704;52.006;4.374;2023-07-24T01:23:37;18.10;99.90
17178;DHT22;8704;52.006;4.374;2023-07-24T01:26:08;18.10;99.90
17178;DHT22;8704;52.006;4.374;2023-07-24T01:28:36;18.10;99.90
17178;DHT22;8704;52.006;4.374;2023-07-24T01:31:04;18.00;99.90
17178;DHT22;8704;52.006;4.374;2023-07-24T01:33:32;18.00;99.90
17178;DHT22;8704;52.006;4.374;2023-07-24T01:36:03;18.00;99.90
17178;DHT22;8704;52.006;4.374;2023-07-24T01:38:32;18.00;99.90
17178;DHT22;8704;52.006;4.374;2023-07-24T01:41:03;18.00;99.90
17178;DHT22;8704;52.006;4.374;2023-07-24T01:43:32;18.00;99.90
17178;DHT22;8704;52.006;4.374;2023-07-24T01:46:00;18.00;99.90
17178;DHT22;8704;52.006;4.374;2023-07-24T01:48:28;18.00;99.90
17178;DHT22;8704;52.006;4.374;2023-07-24T01:50:56;17.90;99.90
17178;DHT22;8704;52.006;4.374;2023-07-24T01:53:25;18.00;99.90
17178;DHT22;8704;52.006;4.374;2023-07-24T01:55:53;17.90;99.90
17178;DHT22;8704;52.006;4.374;2023-07-24T01:58:21;17.90;99.90
17178;DHT22;8704;52.006;4.374;2023-07-24T02:00:50;17.90;99.90
17178;DHT22;8704;52.006;4.374;2023-07-24T02:03:18;17.90;99.90
17178;DHT22;8704;52.006;4.374;2023-07-24T02:05:49;17.90;99.90
17178;DHT22;8704;52.006;4.374;2023-07-24T02:08:18;17.90;99.90
17178;DHT22;8704;52.006;4.374;2023-07-24T02:10:48;17.90;99.90
17178;DHT22;8704;52.006;4.374;2023-07-24T02:13:17;17.90;99.90
17178;DHT22;8704;52.006;4.374;2023-07-24T02:15:46;17.90;99.90
17178;DHT22;8704;52.006;4.374;2023-07-24T02:18:15;17.90;99.90
17178;DHT22;8704;52.006;4.374;2023-07-24T02:20:48;17.90;99.90
17178;DHT22;8704;52.006;4.374;2023-07-24T02:23:17;17.90;99.90
17178;DHT22;8704;52.006;4.374;2023-07-24T02:25:45;17.90;99.90
17178;DHT22;8704;52.006;4.374;2023-07-24T02:28:13;17.90;99.90
17178;DHT22;8704;52.006;4.374;2023-07-24T02:30:41;17.90;99.90
17178;DHT22;8704;52.006;4.374;2023-07-24T02:33:09;17.90;99.90
17178;DHT22;8704;52.006;4.374;2023-07-24T02:35:40;17.90;99.90
17178;DHT22;8704;52.006;4.374;2023-07-24T02:38:08;17.90;99.90
17178;DHT22;8704;52.006;4.374;2023-07-24T02:40:36;17.90;99.90
17178;DHT22;8704;52.006;4.374;2023-07-24T02:43:04;17.90;99.90
17178;DHT22;8704;52.006;4.374;2023-07-24T02:45:34;17.90;99.90
17178;DHT22;8704;52.006;4.374;2023-07-24T02:48:02;17.90;99.90
17178;DHT22;8704;52.006;4.374;2023-07-24T02:50:30;17.90;99.90
17178;DHT22;8704;52.006;4.374;2023-07-24T02:53:00;17.90;99.90
17178;DHT22;8704;52.006;4.374;2023-07-24T02:55:28;17.90;99.90
17178;DHT22;8704;52.006;4.374;2023-07-24T02:57:56;17.90;99.90
17178;DHT22;8704;52.006;4.374;2023-07-24T03:00:24;17.90;99.90
17178;DHT22;8704;52.006;4.374;2023-07-24T03:02:53;17.90;99.90
17178;DHT22;8704;52.006;4.374;2023-07-24T03:05:21;17.90;99.90
17178;DHT22;8704;52.006;4.374;2023-07-24T03:07:49;17.90;99.90
17178;DHT22;8704;52.006;4.374;2023-07-24T03:10:18;17.90;99.90
17178;DHT22;8704;52.006;4.374;2023-07-24T03:12:46;17.90;99.90
17178;DHT22;8704;52.006;4.374;2023-07-24T03:15:15;17.90;99.90
17178;DHT22;8704;52.006;4.374;2023-07-24T03:17:43;17.90;99.90
17178;DHT22;8704;52.006;4.374;2023-07-24T03:20:14;17.90;99.90
17178;DHT22;8704;52.006;4.374;2023-07-24T03:22:43;17.90;99.90
17178;DHT22;8704;52.006;4.374;2023-07-24T03:25:11;17.90;99.90
17178;DHT22;8704;52.006;4.374;2023-07-24T03:27:41;17.90;99.90
17178;DHT22;8704;52.006;4.374;2023-07-24T03:30:09;17.90;99.90
17178;DHT22;8704;52.006;4.374;2023-07-24T03:32:38;17.90;99.90
17178;DHT22;8704;52.006;4.374;2023-07-24T03:35:07;17.90;99.90
17178;DHT22;8704;52.006;4.374;2023-07-24T03:37:35;17.90;99.90
17178;DHT22;8704;52.006;4.374;2023-07-24T03:40:04;17.90;99.90
17178;DHT22;8704;52.006;4.374;2023-07-24T03:42:32;17.90;99.90
17178;DHT22;8704;52.006;4.374;2023-07-24T03:45:02;17.80;99.90
17178;DHT22;8704;52.006;4.374;2023-07-24T03:47:30;17.80;99.90
17178;DHT22;8704;52.006;4.374;2023-07-24T03:49:58;17.80;99.90
17178;DHT22;8704;52.006;4.374;2023-07-24T03:52:26;17.80;99.90
17178;DHT22;8704;52.006;4.374;2023-07-24T03:54:54;17.80;99.90
17178;DHT22;8704;52.006;4.374;2023-07-24T03:57:23;17.80;99.90
17178;DHT22;8704;52.006;4.374;2023-07-24T03:59:51;17.80;99.90
17178;DHT22;8704;52.006;4.374;2023-07-24T04:02:20;17.80;99.90
17178;DHT22;8704;52.006;4.374;2023-07-24T04:04:48;17.80;99.90
17178;DHT22;8704;52.006;4.374;2023-07-24T04:07:17;17.80;99.90
17178;DHT22;8704;52.006;4.374;2023-07-24T04:09:45;17.80;99.90
17178;DHT22;8704;52.006;4.374;2023-07-24T04:12:13;17.80;99.90
17178;DHT22;8704;52.006;4.374;2023-07-24T04:14:41;17.80;99.90
17178;DHT22;8704;52.006;4.374;2023-07-24T04:17:09;17.90;99.90
17178;DHT22;8704;52.006;4.374;2023-07-24T04:19:38;17.80;99.90
17178;DHT22;8704;52.006;4.374;2023-07-24T04:22:07;17.80;99.90
17178;DHT22;8704;52.006;4.374;2023-07-24T04:24:35;17.80;99.90
17178;DHT22;8704;52.006;4.374;2023-07-24T04:27:04;17.80;99.90
17178;DHT22;8704;52.006;4.374;2023-07-24T04:29:32;17.80;99.90
17178;DHT22;8704;52.006;4.374;2023-07-24T04:32:00;17.80;99.90
17178;DHT22;8704;52.006;4.374;2023-07-24T04:34:28;17.80;99.90
17178;DHT22;8704;52.006;4.374;2023-07-24T04:36:57;17.80;99.90
17178;DHT22;8704;52.006;4.374;2023-07-24T04:39:25;17.80;99.90
17178;DHT22;8704;52.006;4.374;2023-07-24T04:41:54;17.80;99.90
17178;DHT22;8704;52.006;4.374;2023-07-24T04:44:22;17.80;99.90
17178;DHT22;8704;52.006;4.374;2023-07-24T04:46:50;17.90;99.90
17178;DHT22;8704;52.006;4.374;2023-07-24T04:49:18;17.80;99.90
17178;DHT22;8704;52.006;4.374;2023-07-24T04:51:46;17.90;99.90
17178;DHT22;8704;52.006;4.374;2023-07-24T04:54:16;17.90;99.90
17178;DHT22;8704;52.006;4.374;2023-07-24T04:56:44;17.90;99.90
17178;DHT22;8704;52.006;4.374;2023-07-24T04:59:12;17.90;99.90
17178;DHT22;8704;52.006;4.374;2023-07-24T05:01:40;17.90;99.90
17178;DHT22;8704;52.006;4.374;2023-07-24T05:04:08;17.90;99.90
17178;DHT22;8704;52.006;4.374;2023-07-24T05:06:36;17.90;99.90
17178;DHT22;8704;52.006;4.374;2023-07-24T05:09:05;17.90;99.90
17178;DHT22;8704;52.006;4.374;2023-07-24T05:11:34;17.90;99.90
17178;DHT22;8704;52.006;4.374;2023-07-24T05:14:02;17.90;99.90
17178;DHT22;8704;52.006;4.374;2023-07-24T05:16:30;17.90;99.90
17178;DHT22;8704;52.006;4.374;2023-07-24T05:18:59;17.90;99.90
17178;DHT22;8704;52.006;4.374;2023-07-24T05:21:27;17.90;99.90
17178;DHT22;8704;52.006;4.374;2023-07-24T05:23:55;17.90;99.90
17178;DHT22;8704;52.006;4.374;2023-07-24T05:26:23;17.90;99.90
17178;DHT22;8704;52.006;4.374;2023-07-24T05:28:53;17.90;99.90
17178;DHT22;8704;52.006;4.374;2023-07-24T05:31:21;17.90;99.90
17178;DHT22;8704;52.006;4.374;2023-07-24T05:33:50;18.00;99.90
17178;DHT22;8704;52.006;4.374;2023-07-24T05:36:18;18.00;99.90
17178;DHT22;8704;52.006;4.374;2023-07-24T05:38:46;18.00;99.90
17178;DHT22;8704;52.006;4.374;2023-07-24T05:41:14;18.00;99.90
17178;DHT22;8704;52.006;4.374;2023-07-24T05:43:42;18.00;99.90
17178;DHT22;8704;52.006;4.374;2023-07-24T05:46:11;18.10;99.90
17178;DHT22;8704;52.006;4.374;2023-07-24T05:48:39;18.10;99.90
17178;DHT22;8704;52.006;4.374;2023-07-24T05:51:08;18.10;99.90
17178;DHT22;8704;52.006;4.374;2023-07-24T05:53:36;18.10;99.90
17178;DHT22;8704;52.006;4.374;2023-07-24T05:56:04;18.10;99.90
17178;DHT22;8704;52.006;4.374;2023-07-24T05:58:32;18.20;99.90
17178;DHT22;8704;52.006;4.374;2023-07-24T06:01:00;18.20;99.90
17178;DHT22;8704;52.006;4.374;2023-07-24T06:03:30;18.20;99.90
17178;DHT22;8704;52.006;4.374;2023-07-24T06:05:58;18.20;99.30
17178;DHT22;8704;52.006;4.374;2023-07-24T06:08:26;18.30;99.90
17178;DHT22;8704;52.006;4.374;2023-07-24T06:10:54;18.30;99.90
17178;DHT22;8704;52.006;4.374;2023-07-24T06:13:22;18.30;95.70
17178;DHT22;8704;52.006;4.374;2023-07-24T06:15:52;18.40;99.90
17178;DHT22;8704;52.006;4.374;2023-07-24T06:18:20;18.40;90.90
17178;DHT22;8704;52.006;4.374;2023-07-24T06:20:53;18.50;91.10
17178;DHT22;8704;52.006;4.374;2023-07-24T06:23:21;18.50;86.50
17178;DHT22;8704;52.006;4.374;2023-07-24T06:25:50;18.50;90.10
17178;DHT22;8704;52.006;4.374;2023-07-24T06:28:18;18.50;96.40
17178;DHT22;8704;52.006;4.374;2023-07-24T06:30:46;18.60;93.00
17178;DHT22;8704;52.006;4.374;2023-07-24T06:33:14;18.60;95.30
17178;DHT22;8704;52.006;4.374;2023-07-24T06:35:42;18.70;96.50
17178;DHT22;8704;52.006;4.374;2023-07-24T06:38:12;18.70;99.90
17178;DHT22;8704;52.006;4.374;2023-07-24T06:40:40;18.70;67.80
17178;DHT22;8704;52.006;4.374;2023-07-24T06:43:08;18.70;99.70
17178;DHT22;8704;52.006;4.374;2023-07-24T06:45:36;18.70;76.70
17178;DHT22;8704;52.006;4.374;2023-07-24T06:48:05;18.80;99.90
17178;DHT22;8704;52.006;4.374;2023-07-24T06:50:33;18.90;93.70
17178;DHT22;8704;52.006;4.374;2023-07-24T06:53:01;19.00;91.80
17178;DHT22;8704;52.006;4.374;2023-07-24T06:55:31;19.10;98.10
17178;DHT22;8704;52.006;4.374;2023-07-24T06:57:59;19.10;58.00
17178;DHT22;8704;52.006;4.374;2023-07-24T07:00:27;19.20;90.40
17178;DHT22;8704;52.006;4.374;2023-07-24T07:02:55;19.30;32.10
17178;DHT22;8704;52.006;4.374;2023-07-24T07:05:25;19.30;37.40
17178;DHT22;8704;52.006;4.374;2023-07-24T07:07:53;19.30;25.20
17178;DHT22;8704;52.006;4.374;2023-07-24T07:10:21;19.20;26.60
17178;DHT22;8704;52.006;4.374;2023-07-24T07:12:51;19.20;27.20
17178;DHT22;8704;52.006;4.374;2023-07-24T07:15:19;19.10;41.10
17178;DHT22;8704;52.006;4.374;2023-07-24T07:17:47;19.10;35.50
17178;DHT22;8704;52.006;4.374;2023-07-24T07:20:15;19.20;91.90
17178;DHT22;8704;52.006;4.374;2023-07-24T07:22:43;19.10;37.30
17178;DHT22;8704;52.006;4.374;2023-07-24T07:25:11;19.20;65.30
17178;DHT22;8704;52.006;4.374;2023-07-24T07:27:40;19.30;29.40
17178;DHT22;8704;52.006;4.374;2023-07-24T07:30:10;19.30;18.20
17178;DHT22;8704;52.006;4.374;2023-07-24T07:32:38;19.40;21.50
17178;DHT22;8704;52.006;4.374;2023-07-24T07:35:08;19.40;4.60
17178;DHT22;8704;52.006;4.374;2023-07-24T07:37:36;19.50;1.00
17178;DHT22;8704;52.006;4.374;2023-07-24T07:40:05;19.60;1.00
17178;DHT22;8704;52.006;4.374;2023-07-24T07:42:33;19.80;1.00
17178;DHT22;8704;52.006;4.374;2023-07-24T07:45:06;19.80;1.00
17178;DHT22;8704;52.006;4.374;2023-07-24T07:47:35;19.80;1.00
17178;DHT22;8704;52.006;4.374;2023-07-24T07:50:04;19.80;1.00
17178;DHT22;8704;52.006;4.374;2023-07-24T07:52:32;19.70;1.00
17178;DHT22;8704;52.006;4.374;2023-07-24T07:55:00;19.70;1.00
17178;DHT22;8704;52.006;4.374;2023-07-24T07:57:28;19.80;1.00
17178;DHT22;8704;52.006;4.374;2023-07-24T07:59:57;19.80;1.00
17178;DHT22;8704;52.006;4.374;2023-07-24T08:02:26;19.70;1.00
17178;DHT22;8704;52.006;4.374;2023-07-24T08:04:56;19.80;1.00
17178;DHT22;8704;52.006;4.374;2023-07-24T08:07:32;19.80;1.00
17178;DHT22;8704;52.006;4.374;2023-07-24T08:10:00;19.70;1.00
17178;DHT22;8704;52.006;4.374;2023-07-24T08:12:28;19.70;1.00
17178;DHT22;8704;52.006;4.374;2023-07-24T08:14:56;19.70;1.00
17178;DHT22;8704;52.006;4.374;2023-07-24T08:17:24;19.80;1.00
17178;DHT22;8704;52.006;4.374;2023-07-24T08:19:53;19.90;1.00
17178;DHT22;8704;52.006;4.374;2023-07-24T08:22:22;20.00;1.00
17178;DHT22;8704;52.006;4.374;2023-07-24T08:24:50;20.10;1.00
17178;DHT22;8704;52.006;4.374;2023-07-24T08:27:22;20.10;1.00
17178;DHT22;8704;52.006;4.374;2023-07-24T08:29:51;20.10;1.00
17178;DHT22;8704;52.006;4.374;2023-07-24T08:32:19;20.10;1.00
17178;DHT22;8704;52.006;4.374;2023-07-24T08:34:48;20.10;1.00
17178;DHT22;8704;52.006;4.374;2023-07-24T08:37:16;20.00;1.00
17178;DHT22;8704;52.006;4.374;2023-07-24T08:39:45;20.00;1.00
17178;DHT22;8704;52.006;4.374;2023-07-24T08:42:13;20.20;1.00
17178;DHT22;8704;52.006;4.374;2023-07-24T08:44:42;20.20;1.00
17178;DHT22;8704;52.006;4.374;2023-07-24T08:47:11;20.40;1.00
17178;DHT22;8704;52.006;4.374;2023-07-24T08:49:40;20.50;1.00
17178;DHT22;8704;52.006;4.374;2023-07-24T08:52:09;20.50;1.00
17178;DHT22;8704;52.006;4.374;2023-07-24T08:54:55;20.50;1.00
17178;DHT22;8704;52.006;4.374;2023-07-24T08:57:27;20.60;1.00
17178;DHT22;8704;52.006;4.374;2023-07-24T08:59:55;20.70;1.00
17178;DHT22;8704;52.006;4.374;2023-07-24T09:02:24;20.70;1.00
17178;DHT22;8704;52.006;4.374;2023-07-24T09:04:53;20.80;1.00
17178;DHT22;8704;52.006;4.374;2023-07-24T09:07:21;20.90;1.00
17178;DHT22;8704;52.006;4.374;2023-07-24T09:09:49;20.90;1.00
17178;DHT22;8704;52.006;4.374;2023-07-24T09:12:19;21.00;1.00
17178;DHT22;8704;52.006;4.374;2023-07-24T09:14:47;21.00;1.00
17178;DHT22;8704;52.006;4.374;2023-07-24T09:17:15;21.10;1.00
17178;DHT22;8704;52.006;4.374;2023-07-24T09:19:43;21.30;1.00
17178;DHT22;8704;52.006;4.374;2023-07-24T09:22:13;21.40;1.00
17178;DHT22;8704;52.006;4.374;2023-07-24T09:24:51;21.50;1.00
17178;DHT22;8704;52.006;4.374;2023-07-24T09:27:23;21.50;1.00
17178;DHT22;8704;52.006;4.374;2023-07-24T09:29:52;21.60;1.00
17178;DHT22;8704;52.006;4.374;2023-07-24T09:32:21;21.60;1.00
17178;DHT22;8704;52.006;4.374;2023-07-24T09:34:50;21.70;1.00
17178;DHT22;8704;52.006;4.374;2023-07-24T09:37:27;21.60;1.00
17178;DHT22;8704;52.006;4.374;2023-07-24T09:39:55;21.60;1.00
17178;DHT22;8704;52.006;4.374;2023-07-24T09:42:31;21.60;1.00
17178;DHT22;8704;52.006;4.374;2023-07-24T09:44:59;21.50;1.00
17178;DHT22;8704;52.006;4.374;2023-07-24T09:47:28;21.50;1.00
17178;DHT22;8704;52.006;4.374;2023-07-24T09:50:16;21.60;1.00
17178;DHT22;8704;52.006;4.374;2023-07-24T09:52:47;21.50;1.00
17178;DHT22;8704;52.006;4.374;2023-07-24T09:55:21;21.60;1.00
17178;DHT22;8704;52.006;4.374;2023-07-24T09:57:52;21.60;1.00
17178;DHT22;8704;52.006;4.374;2023-07-24T10:00:22;21.50;1.00
17178;DHT22;8704;52.006;4.374;2023-07-24T10:02:51;21.50;1.00
17178;DHT22;8704;52.006;4.374;2023-07-24T10:05:19;21.70;1.00
17178;DHT22;8704;52.006;4.374;2023-07-24T10:07:48;21.80;1.00
17178;DHT22;8704;52.006;4.374;2023-07-24T10:10:17;21.90;1.00
17178;DHT22;8704;52.006;4.374;2023-07-24T10:12:45;21.90;1.00
17178;DHT22;8704;52.006;4.374;2023-07-24T10:15:15;21.90;1.00
17178;DHT22;8704;52.006;4.374;2023-07-24T10:17:43;21.90;1.00
17178;DHT22;8704;52.006;4.374;2023-07-24T10:20:12;22.10;1.00
17178;DHT22;8704;52.006;4.374;2023-07-24T10:22:41;22.20;1.00
17178;DHT22;8704;52.006;4.374;2023-07-24T10:25:11;22.40;1.00
17178;DHT22;8704;52.006;4.374;2023-07-24T10:27:41;22.60;1.00
17178;DHT22;8704;52.006;4.374;2023-07-24T10:30:10;22.50;1.00
17178;DHT22;8704;52.006;4.374;2023-07-24T10:33:05;22.50;1.00
17178;DHT22;8704;52.006;4.374;2023-07-24T10:35:41;22.50;1.00
17178;DHT22;8704;52.006;4.374;2023-07-24T10:38:10;22.70;1.00
17178;DHT22;8704;52.006;4.374;2023-07-24T10:40:40;23.00;1.00
17178;DHT22;8704;52.006;4.374;2023-07-24T10:43:09;22.90;1.00
17178;DHT22;8704;52.006;4.374;2023-07-24T10:45:42;22.90;1.00
17178;DHT22;8704;52.006;4.374;2023-07-24T10:48:12;22.90;1.00
17178;DHT22;8704;52.006;4.374;2023-07-24T10:50:41;22.80;1.00
17178;DHT22;8704;52.006;4.374;2023-07-24T10:53:10;22.70;1.00
17178;DHT22;8704;52.006;4.374;2023-07-24T10:55:39;22.70;1.00
17178;DHT22;8704;52.006;4.374;2023-07-24T10:58:08;22.90;1.00
17178;DHT22;8704;52.006;4.374;2023-07-24T11:00:36;23.10;1.00
17178;DHT22;8704;52.006;4.374;2023-07-24T11:03:04;23.10;1.00
17178;DHT22;8704;52.006;4.374;2023-07-24T11:05:34;23.40;1.00
17178;DHT22;8704;52.006;4.374;2023-07-24T11:08:09;23.40;1.00
17178;DHT22;8704;52.006;4.374;2023-07-24T11:10:44;23.00;1.00
17178;DHT22;8704;52.006;4.374;2023-07-24T11:13:13;22.90;1.00
17178;DHT22;8704;52.006;4.374;2023-07-24T11:15:41;22.70;1.00
17178;DHT22;8704;52.006;4.374;2023-07-24T11:18:09;22.60;1.00
17178;DHT22;8704;52.006;4.374;2023-07-24T11:20:44;22.50;1.00
17178;DHT22;8704;52.006;4.374;2023-07-24T11:23:13;22.50;1.00
17178;DHT22;8704;52.006;4.374;2023-07-24T11:25:41;22.50;1.00
17178;DHT22;8704;52.006;4.374;2023-07-24T11:28:11;22.60;1.00
17178;DHT22;8704;52.006;4.374;2023-07-24T11:30:40;22.40;1.00
17178;DHT22;8704;52.006;4.374;2023-07-24T11:33:10;22.10;1.00
17178;DHT22;8704;52.006;4.374;2023-07-24T11:35:40;22.30;1.00
17178;DHT22;8704;52.006;4.374;2023-07-24T11:38:09;22.50;1.00
17178;DHT22;8704;52.006;4.374;2023-07-24T11:40:39;22.40;1.00
17178;DHT22;8704;52.006;4.374;2023-07-24T11:43:15;22.30;1.00
17178;DHT22;8704;52.006;4.374;2023-07-24T11:45:45;22.30;1.00
17178;DHT22;8704;52.006;4.374;2023-07-24T11:48:15;22.20;1.00
17178;DHT22;8704;52.006;4.374;2023-07-24T11:50:46;22.00;1.00
17178;DHT22;8704;52.006;4.374;2023-07-24T11:53:21;22.00;1.00
17178;DHT22;8704;52.006;4.374;2023-07-24T11:55:51;21.90;1.00
17178;DHT22;8704;52.006;4.374;2023-07-24T11:58:19;21.70;1.00
17178;DHT22;8704;52.006;4.374;2023-07-24T12:00:48;21.70;1.00
17178;DHT22;8704;52.006;4.374;2023-07-24T12:03:19;21.50;1.00
17178;DHT22;8704;52.006;4.374;2023-07-24T12:05:50;21.70;1.00
17178;DHT22;8704;52.006;4.374;2023-07-24T12:08:29;21.90;1.00
17178;DHT22;8704;52.006;4.374;2023-07-24T12:10:57;22.00;1.00
17178;DHT22;8704;52.006;4.374;2023-07-24T12:13:26;22.00;1.00
17178;DHT22;8704;52.006;4.374;2023-07-24T12:15:54;21.80;1.00
17178;DHT22;8704;52.006;4.374;2023-07-24T12:18:22;21.90;1.00
17178;DHT22;8704;52.006;4.374;2023-07-24T12:20:52;21.90;1.00
17178;DHT22;8704;52.006;4.374;2023-07-24T12:23:20;22.00;1.00
17178;DHT22;8704;52.006;4.374;2023-07-24T12:25:48;21.90;1.00
17178;DHT22;8704;52.006;4.374;2023-07-24T12:28:16;21.90;1.00
17178;DHT22;8704;52.006;4.374;2023-07-24T12:30:44;21.80;1.00
17178;DHT22;8704;52.006;4.374;2023-07-24T12:33:12;21.60;1.00
17178;DHT22;8704;52.006;4.374;2023-07-24T12:35:40;21.40;1.00
17178;DHT22;8704;52.006;4.374;2023-07-24T12:38:10;21.30;1.00
17178;DHT22;8704;52.006;4.374;2023-07-24T12:40:38;21.30;1.00
17178;DHT22;8704;52.006;4.374;2023-07-24T12:43:06;21.40;1.00
17178;DHT22;8704;52.006;4.374;2023-07-24T12:45:34;21.20;1.00
17178;DHT22;8704;52.006;4.374;2023-07-24T12:48:02;21.30;1.00
17178;DHT22;8704;52.006;4.374;2023-07-24T12:50:31;21.40;1.00
17178;DHT22;8704;52.006;4.374;2023-07-24T12:52:59;21.30;1.00
17178;DHT22;8704;52.006;4.374;2023-07-24T12:55:31;21.60;1.00
17178;DHT22;8704;52.006;4.374;2023-07-24T12:58:00;21.50;1.00
17178;DHT22;8704;52.006;4.374;2023-07-24T13:00:30;21.20;1.00
17178;DHT22;8704;52.006;4.374;2023-07-24T13:02:58;21.10;1.00
17178;DHT22;8704;52.006;4.374;2023-07-24T13:05:27;21.00;1.00
17178;DHT22;8704;52.006;4.374;2023-07-24T13:07:55;20.90;1.00
17178;DHT22;8704;52.006;4.374;2023-07-24T13:10:23;20.70;1.00
17178;DHT22;8704;52.006;4.374;2023-07-24T13:12:53;20.50;1.00
17178;DHT22;8704;52.006;4.374;2023-07-24T13:15:21;20.50;1.00
17178;DHT22;8704;52.006;4.374;2023-07-24T13:17:49;20.50;1.00
17178;DHT22;8704;52.006;4.374;2023-07-24T13:20:17;20.50;1.00
17178;DHT22;8704;52.006;4.374;2023-07-24T13:22:45;20.60;1.00
17178;DHT22;8704;52.006;4.374;2023-07-24T13:25:15;20.60;1.00
17178;DHT22;8704;52.006;4.374;2023-07-24T13:27:43;20.80;1.00
17178;DHT22;8704;52.006;4.374;2023-07-24T13:30:13;20.70;1.00
17178;DHT22;8704;52.006;4.374;2023-07-24T13:32:41;20.80;1.00
17178;DHT22;8704;52.006;4.374;2023-07-24T13:35:09;20.60;1.00
17178;DHT22;8704;52.006;4.374;2023-07-24T13:37:37;20.60;1.00
17178;DHT22;8704;52.006;4.374;2023-07-24T13:40:06;20.70;1.00
17178;DHT22;8704;52.006;4.374;2023-07-24T13:42:35;20.60;1.00
17178;DHT22;8704;52.006;4.374;2023-07-24T13:45:03;20.60;1.00
17178;DHT22;8704;52.006;4.374;2023-07-24T13:47:33;20.50;1.00
17178;DHT22;8704;52.006;4.374;2023-07-24T13:50:01;20.20;1.00
17178;DHT22;8704;52.006;4.374;2023-07-24T13:52:30;20.10;1.00
17178;DHT22;8704;52.006;4.374;2023-07-24T13:54:58;20.20;1.00
17178;DHT22;8704;52.006;4.374;2023-07-24T13:57:27;20.00;1.00
17178;DHT22;8704;52.006;4.374;2023-07-24T13:59:55;19.90;1.00
17178;DHT22;8704;52.006;4.374;2023-07-24T14:02:23;19.90;1.00
17178;DHT22;8704;52.006;4.374;2023-07-24T14:04:53;19.90;1.00
17178;DHT22;8704;52.006;4.374;2023-07-24T14:07:21;20.00;1.00
17178;DHT22;8704;52.006;4.374;2023-07-24T14:09:49;20.00;1.00
17178;DHT22;8704;52.006;4.374;2023-07-24T14:12:18;19.90;1.00
17178;DHT22;8704;52.006;4.374;2023-07-24T14:14:46;19.90;1.00
17178;DHT22;8704;52.006;4.374;2023-07-24T14:17:14;19.60;1.00
17178;DHT22;8704;52.006;4.374;2023-07-24T14:19:42;19.70;1.00
17178;DHT22;8704;52.006;4.374;2023-07-24T14:22:11;19.70;1.00
17178;DHT22;8704;52.006;4.374;2023-07-24T14:24:39;19.50;1.00
17178;DHT22;8704;52.006;4.374;2023-07-24T14:27:10;19.50;1.00
17178;DHT22;8704;52.006;4.374;2023-07-24T14:29:38;19.40;1.00
17178;DHT22;8704;52.006;4.374;2023-07-24T14:32:07;19.20;1.00
17178;DHT22;8704;52.006;4.374;2023-07-24T14:34:36;19.00;1.00
17178;DHT22;8704;52.006;4.374;2023-07-24T14:37:06;19.00;1.00
17178;DHT22;8704;52.006;4.374;2023-07-24T14:39:36;18.80;1.00
17178;DHT22;8704;52.006;4.374;2023-07-24T14:42:05;18.90;1.00
17178;DHT22;8704;52.006;4.374;2023-07-24T14:44:33;19.00;1.00
17178;DHT22;8704;52.006;4.374;2023-07-24T14:47:01;19.10;1.00
17178;DHT22;8704;52.006;4.374;2023-07-24T14:49:29;19.10;1.00
17178;DHT22;8704;52.006;4.374;2023-07-24T14:51:57;19.20;1.00
17178;DHT22;8704;52.006;4.374;2023-07-24T14:54:25;19.00;1.00
17178;DHT22;8704;52.006;4.374;2023-07-24T14:56:55;19.00;1.00
17178;DHT22;8704;52.006;4.374;2023-07-24T14:59:36;19.10;1.00
17178;DHT22;8704;52.006;4.374;2023-07-24T15:02:05;19.10;1.00
17178;DHT22;8704;52.006;4.374;2023-07-24T15:04:34;19.10;1.00
17178;DHT22;8704;52.006;4.374;2023-07-24T15:07:02;19.30;1.00
17178;DHT22;8704;52.006;4.374;2023-07-24T15:09:30;19.20;1.00
17178;DHT22;8704;52.006;4.374;2023-07-24T15:11:59;19.00;1.00
17178;DHT22;8704;52.006;4.374;2023-07-24T15:14:27;19.20;1.00
17178;DHT22;8704;52.006;4.374;2023-07-24T15:16:55;19.20;1.00
17178;DHT22;8704;52.006;4.374;2023-07-24T15:19:24;19.30;1.00
17178;DHT22;8704;52.006;4.374;2023-07-24T15:21:52;19.30;1.00
17178;DHT22;8704;52.006;4.374;2023-07-24T15:24:20;19.10;1.00
17178;DHT22;8704;52.006;4.374;2023-07-24T15:26:48;19.00;1.00
17178;DHT22;8704;52.006;4.374;2023-07-24T15:29:17;19.00;1.00
17178;DHT22;8704;52.006;4.374;2023-07-24T15:31:46;18.90;1.00
17178;DHT22;8704;52.006;4.374;2023-07-24T15:34:14;19.00;1.00
17178;DHT22;8704;52.006;4.374;2023-07-24T15:36:42;18.90;1.00
17178;DHT22;8704;52.006;4.374;2023-07-24T15:39:10;18.90;1.00
17178;DHT22;8704;52.006;4.374;2023-07-24T15:41:38;18.90;1.00
17178;DHT22;8704;52.006;4.374;2023-07-24T15:44:06;18.80;1.00
17178;DHT22;8704;52.006;4.374;2023-07-24T15:46:36;18.80;1.00
17178;DHT22;8704;52.006;4.374;2023-07-24T15:49:04;18.90;1.00
17178;DHT22;8704;52.006;4.374;2023-07-24T15:51:32;18.90;1.00
17178;DHT22;8704;52.006;4.374;2023-07-24T15:54:03;19.00;1.00
17178;DHT22;8704;52.006;4.374;2023-07-24T15:56:34;19.00;1.00
17178;DHT22;8704;52.006;4.374;2023-07-24T15:59:02;18.90;1.00
17178;DHT22;8704;52.006;4.374;2023-07-24T16:01:31;19.00;1.00
17178;DHT22;8704;52.006;4.374;2023-07-24T16:04:01;19.00;1.00
17178;DHT22;8704;52.006;4.374;2023-07-24T16:06:29;19.00;1.00